sensor_id;sensor_type;location;lat;lon;timestamp;P1;durP1;ratioP1;P2;durP2;ratioP2
13457;SDS011;6801;53.018;11.560;2023-02-23T00:00:30;10.35;;;2.83;;
13457;SDS011;6801;53.018;11.560;2023-02-23T00:02:58;12.27;;;3.47;;
13457;SDS011;6801;53.018;11.560;2023-02-23T00:05:27;11.80;;;4.22;;
13457;SDS011;6801;53.018;11.560;2023-02-23T00:07:55;13.02;;;3.05;;
13457;SDS011;6801;53.018;11.560;2023-02-23T00:10:23;6.35;;;2.70;;
13457;SDS011;6801;53.018;11.560;2023-02-23T00:12:54;10.50;;;2.85;;
13457;SDS011;6801;53.018;11.560;2023-02-23T00:15:22;11.23;;;3.53;;
13457;SDS011;6801;53.018;11.560;2023-02-23T00:17:51;11.27;;;3.08;;
13457;SDS011;6801;53.018;11.560;2023-02-23T00:20:19;14.20;;;4.10;;
13457;SDS011;6801;53.018;11.560;2023-02-23T00:22:52;16.63;;;2.85;;
13457;SDS011;6801;53.018;11.560;2023-02-23T00:25:20;12.55;;;3.13;;
13457;SDS011;6801;53.018;11.560;2023-02-23T00:27:50;12.80;;;2.92;;
13457;SDS011;6801;53.018;11.560;2023-02-23T00:30:19;14.10;;;3.67;;
13457;SDS011;6801;53.018;11.560;2023-02-23T00:32:48;15.95;;;3.30;;
13457;SDS011;6801;53.018;11.560;2023-02-23T00:35:17;16.03;;;2.80;;
13457;SDS011;6801;53.018;11.560;2023-02-23T00:37:44;11.18;;;2.88;;
13457;SDS011;6801;53.018;11.560;2023-02-23T00:40:13;14.13;;;2.90;;
13457;SDS011;6801;53.018;11.560;2023-02-23T00:42:42;7.28;;;2.58;;
13457;SDS011;6801;53.018;11.560;2023-02-23T00:45:12;11.68;;;3.15;;
13457;SDS011;6801;53.018;11.560;2023-02-23T00:47:39;12.43;;;3.30;;
13457;SDS011;6801;53.018;11.560;2023-02-23T00:50:08;9.05;;;2.90;;
13457;SDS011;6801;53.018;11.560;2023-02-23T00:52:39;10.13;;;2.92;;
13457;SDS011;6801;53.018;11.560;2023-02-23T00:55:08;11.63;;;2.95;;
13457;SDS011;6801;53.018;11.560;2023-02-23T00:57:36;13.02;;;2.92;;
13457;SDS011;6801;53.018;11.560;2023-02-23T01:00:03;9.55;;;2.72;;
13457;SDS011;6801;53.018;11.560;2023-02-23T01:02:40;5.93;;;2.35;;
13457;SDS011;6801;53.018;11.560;2023-02-23T01:05:08;10.77;;;2.88;;
13457;SDS011;6801;53.018;11.560;2023-02-23T01:07:36;8.88;;;2.53;;
13457;SDS011;6801;53.018;11.560;2023-02-23T01:10:03;9.15;;;2.85;;
13457;SDS011;6801;53.018;11.560;2023-02-23T01:12:43;11.00;;;2.65;;
13457;SDS011;6801;53.018;11.560;2023-02-23T01:15:14;18.55;;;3.13;;
13457;SDS011;6801;53.018;11.560;2023-02-23T01:17:44;10.82;;;2.90;;
13457;SDS011;6801;53.018;11.560;2023-02-23T01:20:12;10.38;;;2.72;;
13457;SDS011;6801;53.018;11.560;2023-02-23T01:22:42;9.75;;;3.13;;
13457;SDS011;6801;53.018;11.560;2023-02-23T01:25:11;9.48;;;2.70;;
13457;SDS011;6801;53.018;11.560;2023-02-23T01:27:38;14.95;;;3.28;;
13457;SDS011;6801;53.018;11.560;2023-02-23T01:30:08;8.68;;;2.70;;
13457;SDS011;6801;53.018;11.560;2023-02-23T01:32:37;8.82;;;3.17;;
13457;SDS011;6801;53.018;11.560;2023-02-23T01:35:06;8.93;;;2.88;;
13457;SDS011;6801;53.018;11.560;2023-02-23T01:37:35;7.80;;;2.58;;
13457;SDS011;6801;53.018;11.560;2023-02-23T01:40:05;12.73;;;3.13;;
13457;SDS011;6801;53.018;11.560;2023-02-23T01:42:36;13.10;;;2.97;;
13457;SDS011;6801;53.018;11.560;2023-02-23T01:47:52;10.27;;;3.17;;
13457;SDS011;6801;53.018;11.560;2023-02-23T01:50:22;9.70;;;2.45;;
13457;SDS011;6801;53.018;11.560;2023-02-23T01:52:51;9.50;;;3.13;;
13457;SDS011;6801;53.018;11.560;2023-02-23T01:55:19;13.32;;;3.00;;
13457;SDS011;6801;53.018;11.560;2023-02-23T01:57:51;6.80;;;2.65;;
13457;SDS011;6801;53.018;11.560;2023-02-23T02:00:21;7.78;;;2.60;;
13457;SDS011;6801;53.018;11.560;2023-02-23T02:02:50;8.38;;;3.13;;
13457;SDS011;6801;53.018;11.560;2023-02-23T02:05:18;9.70;;;3.60;;
13457;SDS011;6801;53.018;11.560;2023-02-23T02:07:49;7.53;;;2.70;;
13457;SDS011;6801;53.018;11.560;2023-02-23T02:10:23;11.50;;;3.40;;
13457;SDS011;6801;53.018;11.560;2023-02-23T02:13:17;13.50;;;4.05;;
13457;SDS011;6801;53.018;11.560;2023-02-23T02:15:54;10.30;;;3.20;;
13457;SDS011;6801;53.018;11.560;2023-02-23T02:18:32;10.48;;;3.03;;
13457;SDS011;6801;53.018;11.560;2023-02-23T02:27:16;14.93;;;3.60;;
13457;SDS011;6801;53.018;11.560;2023-02-23T02:30:06;11.85;;;3.10;;
13457;SDS011;6801;53.018;11.560;2023-02-23T02:33:11;14.38;;;3.58;;
13457;SDS011;6801;53.018;11.560;2023-02-23T02:36:13;14.32;;;3.63;;
13457;SDS011;6801;53.018;11.560;2023-02-23T02:39:02;10.00;;;3.42;;
13457;SDS011;6801;53.018;11.560;2023-02-23T02:41:48;10.38;;;2.80;;
13457;SDS011;6801;53.018;11.560;2023-02-23T02:44:20;10.05;;;3.80;;
13457;SDS011;6801;53.018;11.560;2023-02-23T02:46:53;10.35;;;3.60;;
13457;SDS011;6801;53.018;11.560;2023-02-23T02:49:28;14.38;;;3.72;;
13457;SDS011;6801;53.018;11.560;2023-02-23T02:51:59;16.02;;;4.68;;
13457;SDS011;6801;53.018;11.560;2023-02-23T02:54:35;13.05;;;4.03;;
13457;SDS011;6801;53.018;11.560;2023-02-23T02:57:05;9.50;;;3.03;;
13457;SDS011;6801;53.018;11.560;2023-02-23T02:59:43;13.23;;;4.25;;
13457;SDS011;6801;53.018;11.560;2023-02-23T03:02:28;9.48;;;3.42;;
13457;SDS011;6801;53.018;11.560;2023-02-23T03:05:17;13.85;;;4.15;;
13457;SDS011;6801;53.018;11.560;2023-02-23T03:08:05;15.15;;;4.13;;
13457;SDS011;6801;53.018;11.560;2023-02-23T03:10:58;17.63;;;4.80;;
13457;SDS011;6801;53.018;11.560;2023-02-23T03:13:47;14.93;;;4.23;;
13457;SDS011;6801;53.018;11.560;2023-02-23T03:16:42;12.05;;;4.38;;
13457;SDS011;6801;53.018;11.560;2023-02-23T03:19:35;14.07;;;4.70;;
13457;SDS011;6801;53.018;11.560;2023-02-23T03:22:26;15.95;;;5.00;;
13457;SDS011;6801;53.018;11.560;2023-02-23T03:25:15;15.15;;;4.57;;
13457;SDS011;6801;53.018;11.560;2023-02-23T03:28:08;14.55;;;4.78;;
13457;SDS011;6801;53.018;11.560;2023-02-23T03:31:01;13.23;;;4.20;;
13457;SDS011;6801;53.018;11.560;2023-02-23T03:33:57;15.30;;;5.00;;
13457;SDS011;6801;53.018;11.560;2023-02-23T03:36:52;13.43;;;3.97;;
13457;SDS011;6801;53.018;11.560;2023-02-23T03:39:42;15.45;;;4.93;;
13457;SDS011;6801;53.018;11.560;2023-02-23T03:42:34;22.08;;;5.10;;
13457;SDS011;6801;53.018;11.560;2023-02-23T03:45:22;14.40;;;4.32;;
13457;SDS011;6801;53.018;11.560;2023-02-23T03:48:10;16.45;;;7.20;;
13457;SDS011;6801;53.018;11.560;2023-02-23T03:50:57;15.23;;;5.05;;
13457;SDS011;6801;53.018;11.560;2023-02-23T03:53:46;19.50;;;6.18;;
13457;SDS011;6801;53.018;11.560;2023-02-23T03:56:37;24.97;;;11.57;;
13457;SDS011;6801;53.018;11.560;2023-02-23T03:59:25;21.33;;;6.72;;
13457;SDS011;6801;53.018;11.560;2023-02-23T04:02:16;28.95;;;10.55;;
13457;SDS011;6801;53.018;11.560;2023-02-23T04:05:04;102.43;;;49.33;;
13457;SDS011;6801;53.018;11.560;2023-02-23T04:07:51;24.25;;;8.15;;
13457;SDS011;6801;53.018;11.560;2023-02-23T04:10:39;16.83;;;4.97;;
13457;SDS011;6801;53.018;11.560;2023-02-23T04:13:31;24.25;;;10.35;;
13457;SDS011;6801;53.018;11.560;2023-02-23T04:15:59;19.02;;;5.95;;
13457;SDS011;6801;53.018;11.560;2023-02-23T04:18:29;12.70;;;5.65;;
13457;SDS011;6801;53.018;11.560;2023-02-23T04:20:58;22.10;;;5.05;;
13457;SDS011;6801;53.018;11.560;2023-02-23T04:23:26;22.27;;;7.65;;
13457;SDS011;6801;53.018;11.560;2023-02-23T04:25:54;59.95;;;25.92;;
13457;SDS011;6801;53.018;11.560;2023-02-23T04:28:22;20.02;;;7.68;;
13457;SDS011;6801;53.018;11.560;2023-02-23T04:30:50;12.93;;;4.97;;
13457;SDS011;6801;53.018;11.560;2023-02-23T04:33:17;18.20;;;5.38;;
13457;SDS011;6801;53.018;11.560;2023-02-23T04:35:46;22.52;;;5.57;;
13457;SDS011;6801;53.018;11.560;2023-02-23T04:38:13;12.05;;;4.40;;
13457;SDS011;6801;53.018;11.560;2023-02-23T04:40:40;21.67;;;5.47;;
13457;SDS011;6801;53.018;11.560;2023-02-23T04:43:08;14.82;;;5.35;;
13457;SDS011;6801;53.018;11.560;2023-02-23T04:45:36;17.67;;;5.75;;
13457;SDS011;6801;53.018;11.560;2023-02-23T04:48:04;18.83;;;6.20;;
13457;SDS011;6801;53.018;11.560;2023-02-23T04:50:31;18.42;;;6.00;;
13457;SDS011;6801;53.018;11.560;2023-02-23T04:52:59;20.20;;;5.18;;
13457;SDS011;6801;53.018;11.560;2023-02-23T04:55:26;20.95;;;6.70;;
13457;SDS011;6801;53.018;11.560;2023-02-23T04:57:55;17.85;;;5.82;;
13457;SDS011;6801;53.018;11.560;2023-02-23T05:00:24;22.25;;;5.78;;
13457;SDS011;6801;53.018;11.560;2023-02-23T05:02:51;23.05;;;6.80;;
13457;SDS011;6801;53.018;11.560;2023-02-23T05:05:18;17.15;;;6.10;;
13457;SDS011;6801;53.018;11.560;2023-02-23T05:07:46;20.52;;;6.53;;
13457;SDS011;6801;53.018;11.560;2023-02-23T05:10:14;18.33;;;5.88;;
13457;SDS011;6801;53.018;11.560;2023-02-23T05:12:41;16.42;;;5.30;;
13457;SDS011;6801;53.018;11.560;2023-02-23T05:15:08;25.83;;;7.38;;
13457;SDS011;6801;53.018;11.560;2023-02-23T05:17:36;26.77;;;13.93;;
13457;SDS011;6801;53.018;11.560;2023-02-23T05:20:05;19.25;;;7.35;;
13457;SDS011;6801;53.018;11.560;2023-02-23T05:22:33;23.73;;;7.35;;
13457;SDS011;6801;53.018;11.560;2023-02-23T05:25:00;42.97;;;19.48;;
13457;SDS011;6801;53.018;11.560;2023-02-23T05:27:29;24.27;;;11.60;;
13457;SDS011;6801;53.018;11.560;2023-02-23T05:29:58;21.23;;;8.57;;
13457;SDS011;6801;53.018;11.560;2023-02-23T05:32:26;24.02;;;6.80;;
13457;SDS011;6801;53.018;11.560;2023-02-23T05:34:53;20.35;;;6.72;;
13457;SDS011;6801;53.018;11.560;2023-02-23T05:37:20;13.32;;;5.85;;
13457;SDS011;6801;53.018;11.560;2023-02-23T05:39:47;24.40;;;10.52;;
13457;SDS011;6801;53.018;11.560;2023-02-23T05:42:14;21.35;;;7.60;;
13457;SDS011;6801;53.018;11.560;2023-02-23T05:44:43;16.20;;;6.00;;
13457;SDS011;6801;53.018;11.560;2023-02-23T05:47:10;21.65;;;7.38;;
13457;SDS011;6801;53.018;11.560;2023-02-23T05:49:37;18.85;;;6.80;;
13457;SDS011;6801;53.018;11.560;2023-02-23T05:52:04;23.60;;;10.45;;
13457;SDS011;6801;53.018;11.560;2023-02-23T05:54:31;21.52;;;6.28;;
13457;SDS011;6801;53.018;11.560;2023-02-23T05:56:58;22.48;;;6.85;;
13457;SDS011;6801;53.018;11.560;2023-02-23T05:59:25;22.80;;;7.53;;
13457;SDS011;6801;53.018;11.560;2023-02-23T06:01:53;18.05;;;6.07;;
13457;SDS011;6801;53.018;11.560;2023-02-23T06:04:20;24.50;;;7.15;;
13457;SDS011;6801;53.018;11.560;2023-02-23T06:06:48;19.30;;;6.70;;
13457;SDS011;6801;53.018;11.560;2023-02-23T06:09:15;19.25;;;6.20;;
13457;SDS011;6801;53.018;11.560;2023-02-23T06:11:42;15.70;;;6.75;;
13457;SDS011;6801;53.018;11.560;2023-02-23T06:14:09;21.25;;;6.45;;
13457;SDS011;6801;53.018;11.560;2023-02-23T06:16:36;19.80;;;6.65;;
13457;SDS011;6801;53.018;11.560;2023-02-23T06:19:05;14.60;;;6.70;;
13457;SDS011;6801;53.018;11.560;2023-02-23T06:21:32;23.50;;;7.43;;
13457;SDS011;6801;53.018;11.560;2023-02-23T06:23:59;18.60;;;6.35;;
13457;SDS011;6801;53.018;11.560;2023-02-23T06:26:26;23.50;;;6.63;;
13457;SDS011;6801;53.018;11.560;2023-02-23T06:28:54;23.33;;;6.68;;
13457;SDS011;6801;53.018;11.560;2023-02-23T06:31:21;23.25;;;7.00;;
13457;SDS011;6801;53.018;11.560;2023-02-23T06:33:48;28.65;;;8.40;;
13457;SDS011;6801;53.018;11.560;2023-02-23T06:36:17;20.80;;;7.22;;
13457;SDS011;6801;53.018;11.560;2023-02-23T06:38:44;21.85;;;7.60;;
13457;SDS011;6801;53.018;11.560;2023-02-23T06:41:11;22.45;;;8.70;;
13457;SDS011;6801;53.018;11.560;2023-02-23T06:43:38;24.38;;;9.35;;
13457;SDS011;6801;53.018;11.560;2023-02-23T06:46:05;28.83;;;10.57;;
13457;SDS011;6801;53.018;11.560;2023-02-23T06:48:32;16.75;;;7.38;;
13457;SDS011;6801;53.018;11.560;2023-02-23T06:51:00;25.75;;;8.10;;
13457;SDS011;6801;53.018;11.560;2023-02-23T06:53:28;17.42;;;7.65;;
13457;SDS011;6801;53.018;11.560;2023-02-23T06:55:55;25.42;;;7.22;;
13457;SDS011;6801;53.018;11.560;2023-02-23T06:58:22;18.35;;;7.72;;
13457;SDS011;6801;53.018;11.560;2023-02-23T07:00:49;23.10;;;9.52;;
13457;SDS011;6801;53.018;11.560;2023-02-23T07:03:18;19.05;;;6.72;;
13457;SDS011;6801;53.018;11.560;2023-02-23T07:05:45;20.83;;;6.90;;
13457;SDS011;6801;53.018;11.560;2023-02-23T07:08:12;42.42;;;22.58;;
13457;SDS011;6801;53.018;11.560;2023-02-23T07:10:40;27.08;;;9.93;;
13457;SDS011;6801;53.018;11.560;2023-02-23T07:13:07;26.52;;;7.25;;
13457;SDS011;6801;53.018;11.560;2023-02-23T07:15:34;28.60;;;9.63;;
13457;SDS011;6801;53.018;11.560;2023-02-23T07:18:02;27.15;;;8.63;;
13457;SDS011;6801;53.018;11.560;2023-02-23T07:20:29;22.75;;;7.85;;
13457;SDS011;6801;53.018;11.560;2023-02-23T07:22:57;22.92;;;8.18;;
13457;SDS011;6801;53.018;11.560;2023-02-23T07:25:25;18.75;;;7.18;;
13457;SDS011;6801;53.018;11.560;2023-02-23T07:27:53;21.88;;;7.55;;
13457;SDS011;6801;53.018;11.560;2023-02-23T07:30:21;19.75;;;8.55;;
13457;SDS011;6801;53.018;11.560;2023-02-23T07:32:48;24.83;;;7.13;;
13457;SDS011;6801;53.018;11.560;2023-02-23T07:35:16;24.77;;;6.97;;
13457;SDS011;6801;53.018;11.560;2023-02-23T07:37:43;26.52;;;8.43;;
13457;SDS011;6801;53.018;11.560;2023-02-23T07:40:10;20.17;;;7.22;;
13457;SDS011;6801;53.018;11.560;2023-02-23T07:42:37;22.45;;;7.75;;
13457;SDS011;6801;53.018;11.560;2023-02-23T07:45:07;19.55;;;6.90;;
13457;SDS011;6801;53.018;11.560;2023-02-23T07:47:34;17.97;;;7.00;;
13457;SDS011;6801;53.018;11.560;2023-02-23T07:50:03;21.33;;;8.95;;
13457;SDS011;6801;53.018;11.560;2023-02-23T07:52:34;21.67;;;7.20;;
13457;SDS011;6801;53.018;11.560;2023-02-23T07:55:04;24.83;;;8.40;;
13457;SDS011;6801;53.018;11.560;2023-02-23T07:57:32;24.77;;;7.85;;
13457;SDS011;6801;53.018;11.560;2023-02-23T07:59:59;21.55;;;7.55;;
13457;SDS011;6801;53.018;11.560;2023-02-23T08:02:28;18.33;;;6.78;;
13457;SDS011;6801;53.018;11.560;2023-02-23T08:04:56;20.77;;;6.93;;
13457;SDS011;6801;53.018;11.560;2023-02-23T08:07:23;23.70;;;8.00;;
13457;SDS011;6801;53.018;11.560;2023-02-23T08:09:51;35.33;;;7.57;;
13457;SDS011;6801;53.018;11.560;2023-02-23T08:12:18;17.13;;;6.53;;
13457;SDS011;6801;53.018;11.560;2023-02-23T08:14:45;22.52;;;8.23;;
13457;SDS011;6801;53.018;11.560;2023-02-23T08:17:12;27.75;;;7.97;;
13457;SDS011;6801;53.018;11.560;2023-02-23T08:19:41;23.08;;;8.43;;
13457;SDS011;6801;53.018;11.560;2023-02-23T08:22:07;24.25;;;8.35;;
13457;SDS011;6801;53.018;11.560;2023-02-23T08:24:35;24.33;;;8.55;;
13457;SDS011;6801;53.018;11.560;2023-02-23T08:27:02;27.85;;;7.82;;
13457;SDS011;6801;53.018;11.560;2023-02-23T08:29:29;19.77;;;7.60;;
13457;SDS011;6801;53.018;11.560;2023-02-23T08:31:56;21.83;;;7.82;;
13457;SDS011;6801;53.018;11.560;2023-02-23T08:34:23;20.25;;;6.93;;
13457;SDS011;6801;53.018;11.560;2023-02-23T08:36:52;23.13;;;7.72;;
13457;SDS011;6801;53.018;11.560;2023-02-23T08:39:19;18.17;;;7.82;;
13457;SDS011;6801;53.018;11.560;2023-02-23T08:41:46;17.63;;;6.78;;
13457;SDS011;6801;53.018;11.560;2023-02-23T08:44:13;20.60;;;7.32;;
13457;SDS011;6801;53.018;11.560;2023-02-23T08:46:40;21.88;;;7.68;;
13457;SDS011;6801;53.018;11.560;2023-02-23T08:49:09;18.42;;;6.72;;
13457;SDS011;6801;53.018;11.560;2023-02-23T08:51:36;22.50;;;8.07;;
13457;SDS011;6801;53.018;11.560;2023-02-23T08:54:07;18.88;;;7.53;;
13457;SDS011;6801;53.018;11.560;2023-02-23T08:56:38;26.98;;;9.13;;
13457;SDS011;6801;53.018;11.560;2023-02-23T08:59:06;24.15;;;7.47;;
13457;SDS011;6801;53.018;11.560;2023-02-23T09:01:33;20.55;;;7.63;;
13457;SDS011;6801;53.018;11.560;2023-02-23T09:04:01;23.85;;;7.68;;
13457;SDS011;6801;53.018;11.560;2023-02-23T09:06:28;21.88;;;7.15;;
13457;SDS011;6801;53.018;11.560;2023-02-23T09:08:55;24.90;;;7.53;;
13457;SDS011;6801;53.018;11.560;2023-02-23T09:11:24;23.17;;;8.13;;
13457;SDS011;6801;53.018;11.560;2023-02-23T09:13:51;36.13;;;10.30;;
13457;SDS011;6801;53.018;11.560;2023-02-23T09:16:19;34.17;;;10.73;;
13457;SDS011;6801;53.018;11.560;2023-02-23T09:18:46;30.08;;;9.77;;
13457;SDS011;6801;53.018;11.560;2023-02-23T09:21:13;29.30;;;9.88;;
13457;SDS011;6801;53.018;11.560;2023-02-23T09:23:45;31.67;;;9.88;;
13457;SDS011;6801;53.018;11.560;2023-02-23T09:26:13;36.70;;;10.52;;
13457;SDS011;6801;53.018;11.560;2023-02-23T09:28:43;23.20;;;9.18;;
13457;SDS011;6801;53.018;11.560;2023-02-23T09:31:11;22.52;;;8.60;;
13457;SDS011;6801;53.018;11.560;2023-02-23T09:33:40;35.53;;;11.10;;
13457;SDS011;6801;53.018;11.560;2023-02-23T09:36:08;24.05;;;8.70;;
13457;SDS011;6801;53.018;11.560;2023-02-23T09:38:37;29.45;;;9.48;;
13457;SDS011;6801;53.018;11.560;2023-02-23T09:41:05;35.25;;;10.73;;
13457;SDS011;6801;53.018;11.560;2023-02-23T09:43:49;33.38;;;12.07;;
13457;SDS011;6801;53.018;11.560;2023-02-23T09:46:23;30.77;;;11.70;;
13457;SDS011;6801;53.018;11.560;2023-02-23T09:48:55;24.48;;;10.40;;
13457;SDS011;6801;53.018;11.560;2023-02-23T09:51:25;35.95;;;11.70;;
13457;SDS011;6801;53.018;11.560;2023-02-23T09:53:54;29.63;;;12.07;;
13457;SDS011;6801;53.018;11.560;2023-02-23T09:56:24;28.50;;;11.80;;
13457;SDS011;6801;53.018;11.560;2023-02-23T09:59:01;18.67;;;8.50;;
13457;SDS011;6801;53.018;11.560;2023-02-23T10:01:48;24.05;;;9.52;;
13457;SDS011;6801;53.018;11.560;2023-02-23T10:06:51;24.02;;;10.75;;
13457;SDS011;6801;53.018;11.560;2023-02-23T10:09:23;26.30;;;12.40;;
13457;SDS011;6801;53.018;11.560;2023-02-23T10:11:58;28.30;;;12.25;;
13457;SDS011;6801;53.018;11.560;2023-02-23T10:14:39;25.85;;;12.43;;
13457;SDS011;6801;53.018;11.560;2023-02-23T10:17:23;23.88;;;10.27;;
13457;SDS011;6801;53.018;11.560;2023-02-23T10:20:00;31.92;;;14.77;;
13457;SDS011;6801;53.018;11.560;2023-02-23T10:22:34;24.45;;;13.23;;
13457;SDS011;6801;53.018;11.560;2023-02-23T10:25:05;28.33;;;12.43;;
13457;SDS011;6801;53.018;11.560;2023-02-23T10:27:38;31.08;;;14.02;;
13457;SDS011;6801;53.018;11.560;2023-02-23T10:30:19;32.25;;;14.52;;
13457;SDS011;6801;53.018;11.560;2023-02-23T10:32:49;27.42;;;12.40;;
13457;SDS011;6801;53.018;11.560;2023-02-23T10:35:21;21.42;;;11.48;;
13457;SDS011;6801;53.018;11.560;2023-02-23T10:37:49;25.35;;;12.27;;
13457;SDS011;6801;53.018;11.560;2023-02-23T10:40:18;26.45;;;14.18;;
13457;SDS011;6801;53.018;11.560;2023-02-23T10:42:47;29.90;;;15.23;;
13457;SDS011;6801;53.018;11.560;2023-02-23T10:45:15;26.65;;;13.98;;
13457;SDS011;6801;53.018;11.560;2023-02-23T10:47:49;24.50;;;11.85;;
13457;SDS011;6801;53.018;11.560;2023-02-23T10:50:20;30.52;;;13.25;;
13457;SDS011;6801;53.018;11.560;2023-02-23T10:52:51;33.17;;;15.30;;
13457;SDS011;6801;53.018;11.560;2023-02-23T10:55:23;31.25;;;15.48;;
13457;SDS011;6801;53.018;11.560;2023-02-23T10:58:02;25.73;;;13.67;;
13457;SDS011;6801;53.018;11.560;2023-02-23T11:00:37;29.70;;;14.73;;
13457;SDS011;6801;53.018;11.560;2023-02-23T11:03:16;31.00;;;15.07;;
13457;SDS011;6801;53.018;11.560;2023-02-23T11:05:48;38.15;;;15.75;;
13457;SDS011;6801;53.018;11.560;2023-02-23T11:08:18;34.10;;;16.92;;
13457;SDS011;6801;53.018;11.560;2023-02-23T11:10:58;33.47;;;16.25;;
13457;SDS011;6801;53.018;11.560;2023-02-23T11:13:34;35.78;;;16.80;;
13457;SDS011;6801;53.018;11.560;2023-02-23T11:16:04;30.65;;;15.07;;
13457;SDS011;6801;53.018;11.560;2023-02-23T11:18:36;38.08;;;16.98;;
13457;SDS011;6801;53.018;11.560;2023-02-23T11:21:10;40.15;;;18.52;;
13457;SDS011;6801;53.018;11.560;2023-02-23T11:23:38;37.58;;;17.73;;
13457;SDS011;6801;53.018;11.560;2023-02-23T11:26:16;38.55;;;17.60;;
13457;SDS011;6801;53.018;11.560;2023-02-23T11:28:49;40.10;;;19.38;;
13457;SDS011;6801;53.018;11.560;2023-02-23T11:33:48;40.00;;;18.33;;
13457;SDS011;6801;53.018;11.560;2023-02-23T11:36:16;35.75;;;16.58;;
13457;SDS011;6801;53.018;11.560;2023-02-23T11:38:55;32.83;;;17.75;;
13457;SDS011;6801;53.018;11.560;2023-02-23T11:41:32;39.63;;;18.85;;
13457;SDS011;6801;53.018;11.560;2023-02-23T11:44:01;32.90;;;17.10;;
13457;SDS011;6801;53.018;11.560;2023-02-23T11:46:29;31.65;;;15.38;;
13457;SDS011;6801;53.018;11.560;2023-02-23T11:49:00;39.15;;;17.58;;
13457;SDS011;6801;53.018;11.560;2023-02-23T11:51:31;36.30;;;18.92;;
13457;SDS011;6801;53.018;11.560;2023-02-23T11:53:59;37.97;;;18.63;;
13457;SDS011;6801;53.018;11.560;2023-02-23T11:56:28;33.50;;;17.42;;
13457;SDS011;6801;53.018;11.560;2023-02-23T11:58:58;45.88;;;19.88;;
13457;SDS011;6801;53.018;11.560;2023-02-23T12:01:34;44.75;;;20.60;;
13457;SDS011;6801;53.018;11.560;2023-02-23T12:06:48;36.45;;;18.92;;
13457;SDS011;6801;53.018;11.560;2023-02-23T12:09:18;38.38;;;18.63;;
13457;SDS011;6801;53.018;11.560;2023-02-23T12:11:49;44.45;;;21.17;;
13457;SDS011;6801;53.018;11.560;2023-02-23T12:14:23;42.85;;;21.08;;
13457;SDS011;6801;53.018;11.560;2023-02-23T12:16:56;42.15;;;19.73;;
13457;SDS011;6801;53.018;11.560;2023-02-23T12:19:29;34.72;;;17.77;;
13457;SDS011;6801;53.018;11.560;2023-02-23T12:22:01;34.47;;;17.27;;
13457;SDS011;6801;53.018;11.560;2023-02-23T12:24:36;41.80;;;20.95;;
13457;SDS011;6801;53.018;11.560;2023-02-23T12:27:10;50.03;;;21.65;;
13457;SDS011;6801;53.018;11.560;2023-02-23T12:29:42;42.95;;;21.30;;
13457;SDS011;6801;53.018;11.560;2023-02-23T12:32:31;47.60;;;21.70;;
13457;SDS011;6801;53.018;11.560;2023-02-23T12:35:13;41.88;;;20.05;;
13457;SDS011;6801;53.018;11.560;2023-02-23T12:37:46;47.20;;;20.33;;
13457;SDS011;6801;53.018;11.560;2023-02-23T12:40:15;56.53;;;28.08;;
13457;SDS011;6801;53.018;11.560;2023-02-23T12:42:47;58.67;;;29.75;;
13457;SDS011;6801;53.018;11.560;2023-02-23T12:45:23;45.60;;;22.63;;
13457;SDS011;6801;53.018;11.560;2023-02-23T12:47:58;50.15;;;21.98;;
13457;SDS011;6801;53.018;11.560;2023-02-23T12:50:33;50.72;;;23.63;;
13457;SDS011;6801;53.018;11.560;2023-02-23T12:53:11;48.03;;;23.13;;
13457;SDS011;6801;53.018;11.560;2023-02-23T12:55:46;47.05;;;24.52;;
13457;SDS011;6801;53.018;11.560;2023-02-23T12:58:21;48.35;;;23.98;;
13457;SDS011;6801;53.018;11.560;2023-02-23T13:00:55;46.40;;;22.20;;
13457;SDS011;6801;53.018;11.560;2023-02-23T13:06:30;41.92;;;19.77;;
13457;SDS011;6801;53.018;11.560;2023-02-23T13:09:10;41.03;;;19.75;;
13457;SDS011;6801;53.018;11.560;2023-02-23T13:11:48;42.38;;;20.90;;
13457;SDS011;6801;53.018;11.560;2023-02-23T13:14:26;46.60;;;21.70;;
13457;SDS011;6801;53.018;11.560;2023-02-23T13:17:01;48.75;;;21.83;;
13457;SDS011;6801;53.018;11.560;2023-02-23T13:19:34;47.92;;;22.95;;
13457;SDS011;6801;53.018;11.560;2023-02-23T13:22:15;44.08;;;21.08;;
13457;SDS011;6801;53.018;11.560;2023-02-23T13:24:52;54.50;;;24.67;;
13457;SDS011;6801;53.018;11.560;2023-02-23T13:27:22;48.22;;;23.67;;
13457;SDS011;6801;53.018;11.560;2023-02-23T13:29:54;41.53;;;20.15;;
13457;SDS011;6801;53.018;11.560;2023-02-23T13:32:24;51.25;;;23.67;;
13457;SDS011;6801;53.018;11.560;2023-02-23T13:34:55;49.63;;;22.75;;
13457;SDS011;6801;53.018;11.560;2023-02-23T13:37:27;48.92;;;23.50;;
13457;SDS011;6801;53.018;11.560;2023-02-23T13:40:01;46.50;;;20.38;;
13457;SDS011;6801;53.018;11.560;2023-02-23T13:42:44;54.25;;;25.45;;
13457;SDS011;6801;53.018;11.560;2023-02-23T13:45:31;49.80;;;22.88;;
13457;SDS011;6801;53.018;11.560;2023-02-23T13:48:13;49.60;;;23.65;;
13457;SDS011;6801;53.018;11.560;2023-02-23T13:50:49;44.47;;;22.08;;
13457;SDS011;6801;53.018;11.560;2023-02-23T13:53:31;52.00;;;26.88;;
13457;SDS011;6801;53.018;11.560;2023-02-23T13:56:02;43.85;;;21.63;;
13457;SDS011;6801;53.018;11.560;2023-02-23T13:58:33;50.80;;;24.00;;
13457;SDS011;6801;53.018;11.560;2023-02-23T14:01:05;45.05;;;20.73;;
13457;SDS011;6801;53.018;11.560;2023-02-23T14:03:39;46.72;;;22.10;;
13457;SDS011;6801;53.018;11.560;2023-02-23T14:06:14;50.67;;;24.52;;
13457;SDS011;6801;53.018;11.560;2023-02-23T14:08:48;44.97;;;21.63;;
13457;SDS011;6801;53.018;11.560;2023-02-23T14:11:33;43.05;;;20.70;;
13457;SDS011;6801;53.018;11.560;2023-02-23T14:14:12;42.58;;;22.33;;
13457;SDS011;6801;53.018;11.560;2023-02-23T14:16:41;42.78;;;22.88;;
13457;SDS011;6801;53.018;11.560;2023-02-23T14:22:02;40.45;;;20.92;;
13457;SDS011;6801;53.018;11.560;2023-02-23T14:24:35;45.45;;;20.13;;
13457;SDS011;6801;53.018;11.560;2023-02-23T14:30:14;40.10;;;19.92;;
13457;SDS011;6801;53.018;11.560;2023-02-23T14:32:46;35.53;;;19.33;;
13457;SDS011;6801;53.018;11.560;2023-02-23T14:38:08;33.38;;;19.30;;
13457;SDS011;6801;53.018;11.560;2023-02-23T14:40:39;40.30;;;20.00;;
13457;SDS011;6801;53.018;11.560;2023-02-23T14:46:07;36.17;;;18.60;;
13457;SDS011;6801;53.018;11.560;2023-02-23T14:48:38;31.90;;;17.10;;
13457;SDS011;6801;53.018;11.560;2023-02-23T14:51:10;35.00;;;17.33;;
13457;SDS011;6801;53.018;11.560;2023-02-23T14:53:45;35.88;;;18.10;;
13457;SDS011;6801;53.018;11.560;2023-02-23T14:56:20;28.75;;;16.17;;
13457;SDS011;6801;53.018;11.560;2023-02-23T14:58:49;34.45;;;16.67;;
13457;SDS011;6801;53.018;11.560;2023-02-23T15:04:05;28.38;;;16.60;;
13457;SDS011;6801;53.018;11.560;2023-02-23T15:06:34;29.08;;;15.70;;
13457;SDS011;6801;53.018;11.560;2023-02-23T15:09:03;28.00;;;15.50;;
13457;SDS011;6801;53.018;11.560;2023-02-23T15:11:31;30.10;;;16.25;;
13457;SDS011;6801;53.018;11.560;2023-02-23T15:14:01;28.95;;;16.38;;
13457;SDS011;6801;53.018;11.560;2023-02-23T15:16:29;29.70;;;15.95;;
13457;SDS011;6801;53.018;11.560;2023-02-23T15:21:59;30.42;;;16.17;;
13457;SDS011;6801;53.018;11.560;2023-02-23T15:24:30;30.45;;;16.63;;
13457;SDS011;6801;53.018;11.560;2023-02-23T15:29:29;31.15;;;15.73;;
13457;SDS011;6801;53.018;11.560;2023-02-23T15:32:09;33.00;;;16.92;;
13457;SDS011;6801;53.018;11.560;2023-02-23T15:34:39;28.88;;;15.13;;
13457;SDS011;6801;53.018;11.560;2023-02-23T15:37:09;28.85;;;15.10;;
13457;SDS011;6801;53.018;11.560;2023-02-23T15:39:42;29.73;;;14.88;;